TWB weather

Toowoomba Airport
Toowoomba, Queensland, Australia

Public forecast

Using degrees Celsius for public forecast. Weather courtesy of forecast.io.

METAR (pilot weather report)

Closest report is Oakey Airport, 12.5 nm (23.1 km) NW. Retrieved 2019/03/24 15:00 UTC (8 minutes ago):

YBOK 241500Z AUTO 05009KT 9999 // NCD 24/16 Q1015

TAF (pilot weather forecast)

Closest forecast is RAAF Base Amberley, 42.8 nm (79.2 km) E. Retrieved 2019/03/24 12:00 UTC (3 hours ago):

TAF YAMB 241128Z 2412/2506 09007KT CAVOK FM241400 VRB05KT 9999 FEW015 FM241600 VRB03KT 9999 MIFG SCT015 FM242100 35006KT 9999 FEW020 FM250400 04010KT CAVOK